CEZ weather

Cortez Municipal Airport
Cortez, Colorado, United States

Public forecast

Using degrees Fahrenheit for public forecast. Weather courtesy of forecast.io.

METAR (pilot weather report)

Retrieved 2019/07/19 14:53 UTC (40 minutes ago):

KCEZ 191453Z AUTO 04004KT 10SM CLR 23/06 A3015 RMK AO2 SLP131 T02280056 51009

TAF (pilot weather forecast)

Closest forecast is Four Corners Regional Airport, 38.8 nm (71.8 km) SSE. Retrieved 2019/07/19 12:30 UTC (3 hours ago):

TAF KFMN 191129Z 1912/2012 07006KT P6SM SKC FM191800 28013G19KT P6SM SCT120 FM200200 30010KT P6SM SCT120 FM200600 04006KT P6SM BKN120